createdAt,value
2019-03-28T00:00:10.251Z,27.80
2019-03-28T00:02:39.660Z,27.37
2019-03-28T00:05:09.364Z,25.70
2019-03-28T00:07:38.724Z,25.27
2019-03-28T00:10:08.587Z,27.17
2019-03-28T00:12:38.096Z,25.37
2019-03-28T00:15:08.288Z,27.63
2019-03-28T00:17:37.869Z,29.93
2019-03-28T00:20:07.505Z,29.37
2019-03-28T00:22:49.576Z,28.17
2019-03-28T00:25:31.897Z,26.43
2019-03-28T00:28:01.274Z,29.60
2019-03-28T00:30:30.794Z,29.20
2019-03-28T00:33:00.237Z,29.67
2019-03-28T00:35:29.701Z,27.40
2019-03-28T00:37:59.241Z,30.30
2019-03-28T00:40:30.220Z,27.30
2019-03-28T00:43:00.353Z,28.43
2019-03-28T00:45:29.930Z,29.27
2019-03-28T00:47:59.375Z,29.87
2019-03-28T00:50:28.804Z,31.17
2019-03-28T00:52:58.330Z,31.27
2019-03-28T00:55:27.866Z,30.60
2019-03-28T00:57:57.319Z,30.48
2019-03-28T01:00:26.890Z,31.90
2019-03-28T01:02:56.397Z,32.55
2019-03-28T01:05:25.801Z,31.70
2019-03-28T01:07:55.314Z,29.90
2019-03-28T01:10:24.746Z,30.07
2019-03-28T01:12:54.176Z,29.90
2019-03-28T01:15:23.609Z,28.50
2019-03-28T01:17:53.046Z,31.53
2019-03-28T01:20:22.458Z,30.10
2019-03-28T01:22:51.808Z,28.53
2019-03-28T01:25:21.192Z,31.20
2019-03-28T01:27:50.622Z,28.47
2019-03-28T01:30:19.940Z,31.20
2019-03-28T01:32:49.383Z,26.93
2019-03-28T01:35:18.814Z,26.50
2019-03-28T01:37:48.242Z,27.10
2019-03-28T01:40:17.658Z,25.83
2019-03-28T01:42:47.089Z,26.70
2019-03-28T01:45:16.471Z,28.50
2019-03-28T01:47:45.994Z,26.57
2019-03-28T01:50:15.566Z,30.47
2019-03-28T01:52:44.996Z,33.80
2019-03-28T01:55:14.581Z,30.63
2019-03-28T01:57:43.991Z,33.57
2019-03-28T02:00:13.464Z,32.00
2019-03-28T02:02:42.796Z,33.23
2019-03-28T02:05:13.823Z,32.90
2019-03-28T02:07:43.273Z,34.47
2019-03-28T02:10:12.927Z,32.93
2019-03-28T02:12:42.564Z,29.50
2019-03-28T02:15:12.471Z,33.27
2019-03-28T02:17:41.954Z,32.10
2019-03-28T02:20:11.830Z,33.13
2019-03-28T02:22:41.309Z,34.50
2019-03-28T02:25:12.371Z,31.27
2019-03-28T02:27:41.909Z,30.17
2019-03-28T02:30:11.816Z,31.10
2019-03-28T02:32:41.134Z,28.73
2019-03-28T02:35:10.829Z,27.97
2019-03-28T02:37:40.296Z,25.83
2019-03-28T02:40:09.904Z,27.63
2019-03-28T02:42:39.289Z,29.03
2019-03-28T02:45:09.141Z,26.30
2019-03-28T02:47:38.558Z,29.07
2019-03-28T02:50:08.560Z,29.40
2019-03-28T02:52:37.977Z,32.20
2019-03-28T02:55:07.804Z,32.13
2019-03-28T02:57:41.451Z,30.67
2019-03-28T03:00:09.491Z,33.23
2019-03-28T03:02:38.983Z,32.57
2019-03-28T03:05:08.781Z,30.67
2019-03-28T03:07:38.196Z,29.73
2019-03-28T03:10:07.814Z,31.33
2019-03-28T03:12:37.189Z,30.50
2019-03-28T03:15:06.811Z,31.40
2019-03-28T03:17:36.287Z,31.23
2019-03-28T03:20:07.123Z,31.60
2019-03-28T03:22:36.443Z,34.57
2019-03-28T03:25:06.308Z,33.40
2019-03-28T03:27:35.895Z,33.07
2019-03-28T03:30:06.993Z,32.47
2019-03-28T03:32:36.631Z,30.57
2019-03-28T03:35:06.563Z,33.80
2019-03-28T03:37:36.199Z,32.90
2019-03-28T03:40:08.025Z,30.47
2019-03-28T03:42:37.655Z,31.37
2019-03-28T03:45:09.034Z,31.80
2019-03-28T03:47:38.767Z,31.43
2019-03-28T03:50:09.097Z,31.80
2019-03-28T03:52:38.500Z,33.00
2019-03-28T03:55:08.588Z,31.03
2019-03-28T03:57:38.095Z,31.37
2019-03-28T04:00:08.952Z,31.33
2019-03-28T04:02:38.334Z,32.83
2019-03-28T04:05:07.852Z,30.33
2019-03-28T04:07:37.288Z,30.05
2019-03-28T04:10:07.213Z,31.23
2019-03-28T04:12:36.612Z,32.87
2019-03-28T04:15:06.443Z,29.63
2019-03-28T04:17:36.045Z,30.93
2019-03-28T04:20:06.249Z,29.57
2019-03-28T04:22:36.977Z,32.60
2019-03-28T04:25:07.093Z,32.93
2019-03-28T04:27:36.548Z,32.40
2019-03-28T04:30:06.036Z,32.37
2019-03-28T04:32:35.538Z,31.73
2019-03-28T04:35:05.245Z,33.43
2019-03-28T04:37:34.519Z,30.90
2019-03-28T04:40:04.548Z,32.20
2019-03-28T04:42:34.038Z,31.90
2019-03-28T04:45:05.498Z,32.35
2019-03-28T04:47:34.993Z,33.07
2019-03-28T04:50:05.388Z,32.40
2019-03-28T04:52:34.788Z,34.57
2019-03-28T04:55:04.525Z,34.37
2019-03-28T04:57:33.874Z,31.67
2019-03-28T05:00:03.524Z,34.10
2019-03-28T05:02:32.940Z,35.27
2019-03-28T05:05:02.295Z,33.70
2019-03-28T05:07:31.664Z,35.50
2019-03-28T05:10:01.016Z,33.27
2019-03-28T05:12:30.343Z,32.23
2019-03-28T05:15:01.435Z,34.27
2019-03-28T05:17:30.860Z,32.87
2019-03-28T05:20:00.503Z,33.97
2019-03-28T05:22:29.995Z,38.53
2019-03-28T05:24:59.408Z,39.77
2019-03-28T05:27:28.892Z,36.33
2019-03-28T05:29:58.330Z,36.17
2019-03-28T05:32:27.849Z,38.00
2019-03-28T05:34:57.662Z,35.20
2019-03-28T05:37:27.124Z,39.20
2019-03-28T05:39:56.525Z,36.63
2019-03-28T05:42:26.052Z,36.57
2019-03-28T05:44:55.585Z,37.43
2019-03-28T05:47:24.958Z,36.33
2019-03-28T05:49:54.472Z,36.83
2019-03-28T05:52:23.995Z,36.30
2019-03-28T05:54:53.507Z,38.28
2019-03-28T05:57:23.033Z,37.23
2019-03-28T05:59:52.571Z,38.27
2019-03-28T06:02:22.001Z,36.73
2019-03-28T06:04:51.497Z,38.05
2019-03-28T06:07:20.982Z,37.30
2019-03-28T06:09:50.342Z,37.60
2019-03-28T06:12:19.875Z,39.07
2019-03-28T06:14:49.295Z,36.60
2019-03-28T06:17:18.882Z,36.57
2019-03-28T06:19:48.331Z,36.63
2019-03-28T06:22:17.723Z,34.57
2019-03-28T06:24:47.168Z,37.17
2019-03-28T06:27:16.724Z,38.40
2019-03-28T06:29:46.214Z,36.30
2019-03-28T06:32:15.736Z,34.63
2019-03-28T06:34:45.155Z,37.30
2019-03-28T06:37:14.532Z,37.13
2019-03-28T06:39:44.031Z,39.03
2019-03-28T06:42:13.549Z,39.20
2019-03-28T06:44:43.052Z,36.57
2019-03-28T06:47:12.620Z,37.55
2019-03-28T06:49:42.186Z,37.20
2019-03-28T06:52:11.606Z,37.70
2019-03-28T06:54:41.170Z,35.30
2019-03-28T06:57:10.776Z,34.50
2019-03-28T06:59:40.187Z,35.63
2019-03-28T07:02:09.612Z,36.20
2019-03-28T07:04:39.086Z,37.27
2019-03-28T07:07:08.663Z,35.47
2019-03-28T07:09:38.081Z,38.60
2019-03-28T07:12:07.441Z,37.63
2019-03-28T07:14:37.219Z,38.53
2019-03-28T07:17:06.571Z,39.93
2019-03-28T07:19:35.989Z,38.83
2019-03-28T07:22:05.536Z,38.70
2019-03-28T07:24:35.360Z,39.53
2019-03-28T07:27:04.746Z,38.57
2019-03-28T07:29:34.104Z,37.30
2019-03-28T07:32:03.616Z,38.57
2019-03-28T07:34:33.058Z,39.43
2019-03-28T07:37:02.539Z,38.02
2019-03-28T07:39:31.985Z,37.30
2019-03-28T07:42:01.548Z,36.93
2019-03-28T07:44:31.093Z,35.77
2019-03-28T07:47:00.618Z,36.00
2019-03-28T07:49:30.185Z,37.27
2019-03-28T07:51:59.683Z,34.63
2019-03-28T07:54:29.793Z,35.00
2019-03-28T07:56:59.283Z,36.43
2019-03-28T07:59:28.756Z,39.07
2019-03-28T08:01:58.331Z,36.73
2019-03-28T08:04:28.044Z,35.63
2019-03-28T08:06:57.640Z,35.40
2019-03-28T08:09:36.527Z,36.50
2019-03-28T08:11:58.291Z,35.20
2019-03-28T08:14:27.749Z,35.40
2019-03-28T08:16:57.198Z,38.43
2019-03-28T08:19:26.680Z,36.60
2019-03-28T08:21:56.134Z,38.70
2019-03-28T08:24:25.773Z,38.20
2019-03-28T08:26:55.287Z,37.13
2019-03-28T08:29:25.032Z,36.27
2019-03-28T08:31:55.361Z,38.13
2019-03-28T08:34:24.894Z,40.03
2019-03-28T08:36:54.387Z,37.77
2019-03-28T08:39:24.684Z,38.03
2019-03-28T08:41:54.090Z,34.47
2019-03-28T08:44:23.457Z,35.17
2019-03-28T08:46:52.772Z,35.37
2019-03-28T08:49:22.103Z,33.53
2019-03-28T08:51:51.637Z,35.03
2019-03-28T08:54:21.186Z,36.67
2019-03-28T08:56:50.863Z,34.37
2019-03-28T08:59:20.404Z,36.33
2019-03-28T09:01:49.899Z,32.53
2019-03-28T09:04:19.457Z,34.43
2019-03-28T09:06:48.947Z,32.97
2019-03-28T09:09:21.043Z,31.80
2019-03-28T09:11:49.586Z,31.63
2019-03-28T09:14:19.004Z,33.10
2019-03-28T09:16:48.497Z,32.10
2019-03-28T09:19:18.022Z,30.77
2019-03-28T09:21:47.324Z,29.40
2019-03-28T09:24:16.943Z,30.93
2019-03-28T09:26:46.409Z,29.20
2019-03-28T09:29:15.962Z,29.90
2019-03-28T09:31:45.601Z,27.73
2019-03-28T09:34:15.121Z,28.90
2019-03-28T09:36:44.651Z,28.30
2019-03-28T09:39:14.199Z,26.07
2019-03-28T09:41:43.562Z,23.40
2019-03-28T09:44:13.135Z,24.00
2019-03-28T09:46:42.642Z,22.40
2019-03-28T09:49:12.059Z,22.50
2019-03-28T09:51:41.404Z,22.60
2019-03-28T09:54:10.907Z,20.90
2019-03-28T09:56:40.380Z,23.90
2019-03-28T09:59:08.344Z,20.17
2019-03-28T10:01:37.682Z,23.03
2019-03-28T10:04:07.226Z,23.63
2019-03-28T10:06:36.730Z,23.17
2019-03-28T10:09:07.664Z,23.20
2019-03-28T10:11:37.234Z,24.40
2019-03-28T10:14:06.790Z,23.50
2019-03-28T10:16:36.419Z,28.40
2019-03-28T10:19:06.039Z,22.63
2019-03-28T10:21:37.535Z,20.57
2019-03-28T10:24:06.674Z,22.23
2019-03-28T10:26:36.104Z,22.23
2019-03-28T10:29:05.845Z,21.27
2019-03-28T10:31:35.441Z,20.90
2019-03-28T10:34:04.936Z,22.23
2019-03-28T10:36:34.349Z,20.80
2019-03-28T10:39:05.558Z,19.90
2019-03-28T10:41:35.066Z,20.07
2019-03-28T10:44:04.720Z,20.10
2019-03-28T10:46:34.352Z,19.73
2019-03-28T10:49:03.952Z,19.03
2019-03-28T10:51:33.632Z,19.10
2019-03-28T10:54:03.065Z,14.67
2019-03-28T10:56:32.504Z,14.90
2019-03-28T10:59:01.960Z,16.07
2019-03-28T11:01:47.587Z,13.60
2019-03-28T11:04:02.828Z,12.63
2019-03-28T11:06:32.520Z,13.80
2019-03-28T11:09:02.148Z,13.03
2019-03-28T11:11:31.608Z,13.03
2019-03-28T11:14:01.057Z,13.33
2019-03-28T11:16:30.730Z,13.73
2019-03-28T11:19:00.169Z,14.27
2019-03-28T11:21:29.575Z,15.20
2019-03-28T11:23:58.956Z,14.93
2019-03-28T11:26:28.558Z,16.63
2019-03-28T11:29:00.823Z,14.90
2019-03-28T11:31:29.270Z,13.67
2019-03-28T11:33:58.723Z,13.23
2019-03-28T11:36:28.103Z,13.87
2019-03-28T11:38:57.620Z,14.93
2019-03-28T11:41:27.073Z,14.97
2019-03-28T11:43:56.525Z,13.53
2019-03-28T11:46:26.155Z,13.27
2019-03-28T11:48:55.704Z,13.70
2019-03-28T11:51:25.156Z,14.23
2019-03-28T11:53:54.672Z,12.95
2019-03-28T11:56:24.321Z,12.23
2019-03-28T11:58:53.836Z,12.20
2019-03-28T12:01:23.295Z,11.77
2019-03-28T12:03:52.646Z,11.47
2019-03-28T12:06:22.174Z,11.67
2019-03-28T12:08:51.617Z,12.23
2019-03-28T12:11:21.057Z,11.87
2019-03-28T12:13:50.550Z,13.23
2019-03-28T12:16:20.052Z,13.40
2019-03-28T12:18:49.402Z,13.77
2019-03-28T12:21:18.796Z,12.00
2019-03-28T12:23:48.312Z,11.73
2019-03-28T12:26:17.837Z,12.83
2019-03-28T12:28:47.252Z,10.90
2019-03-28T12:31:16.785Z,10.97
2019-03-28T12:33:46.359Z,10.37
2019-03-28T12:36:15.850Z,11.27
2019-03-28T12:38:45.394Z,11.20
2019-03-28T12:41:14.903Z,10.80
2019-03-28T12:43:44.407Z,10.83
2019-03-28T12:46:14.055Z,11.37
2019-03-28T12:48:43.367Z,10.43
2019-03-28T12:51:12.817Z,9.57
2019-03-28T12:53:42.332Z,9.27
2019-03-28T12:56:12.468Z,9.90
2019-03-28T12:58:42.144Z,10.77
2019-03-28T13:01:12.038Z,10.73
2019-03-28T13:03:45.940Z,10.53
2019-03-28T13:06:12.583Z,9.70
2019-03-28T13:08:42.182Z,9.90
2019-03-28T13:11:11.712Z,8.67
2019-03-28T13:13:41.299Z,8.67
2019-03-28T13:16:10.906Z,7.90
2019-03-28T13:18:40.309Z,7.70
2019-03-28T13:21:13.806Z,6.60
2019-03-28T13:23:40.682Z,6.77
2019-03-28T13:26:10.089Z,6.73
2019-03-28T13:28:39.537Z,6.27
2019-03-28T13:31:09.077Z,6.93
2019-03-28T13:33:38.695Z,7.93
2019-03-28T13:36:08.962Z,5.80
2019-03-28T13:38:38.397Z,5.47
2019-03-28T13:41:07.903Z,5.67
2019-03-28T13:43:37.740Z,5.80
2019-03-28T13:46:07.242Z,5.40
2019-03-28T13:48:36.718Z,5.60
2019-03-28T13:51:06.154Z,5.37
2019-03-28T13:53:39.876Z,5.40
2019-03-28T13:56:06.886Z,5.43
2019-03-28T13:58:36.286Z,6.10
2019-03-28T14:01:05.824Z,5.63
2019-03-28T14:03:35.355Z,5.30
2019-03-28T14:06:04.904Z,4.47
2019-03-28T14:08:34.339Z,4.63
2019-03-28T14:11:03.776Z,3.87
2019-03-28T14:13:33.230Z,4.20
2019-03-28T14:16:02.614Z,3.80
2019-03-28T14:18:32.039Z,3.50
2019-03-28T14:21:01.288Z,3.50
2019-03-28T14:23:30.740Z,4.10
2019-03-28T14:26:00.571Z,3.00
2019-03-28T14:28:30.186Z,2.87
2019-03-28T14:31:00.963Z,2.70
2019-03-28T14:33:30.601Z,2.65
2019-03-28T14:36:00.132Z,2.17
2019-03-28T14:38:29.582Z,2.90
2019-03-28T14:40:59.076Z,2.53
2019-03-28T14:43:28.534Z,3.20
2019-03-28T14:45:57.942Z,2.93
2019-03-28T14:48:27.478Z,2.73
2019-03-28T14:50:57.141Z,3.43
2019-03-28T14:53:26.531Z,2.37
2019-03-28T14:55:56.329Z,2.27
2019-03-28T14:58:27.163Z,2.23
2019-03-28T15:00:56.787Z,1.70
2019-03-28T15:03:27.462Z,2.40
2019-03-28T15:05:57.218Z,2.20
2019-03-28T15:08:26.611Z,2.00
2019-03-28T15:10:56.022Z,1.70
2019-03-28T15:13:25.453Z,1.27
2019-03-28T15:15:54.970Z,2.50
2019-03-28T15:18:24.459Z,2.77
2019-03-28T15:20:53.974Z,2.80
2019-03-28T15:23:23.374Z,2.60
2019-03-28T15:25:52.946Z,2.07
2019-03-28T15:28:22.543Z,2.30
2019-03-28T15:30:51.983Z,2.30
2019-03-28T15:33:21.610Z,1.87
2019-03-28T15:35:51.014Z,2.30
2019-03-28T15:38:20.381Z,2.63
2019-03-28T15:40:49.851Z,2.70
2019-03-28T15:43:19.410Z,2.60
2019-03-28T15:45:48.934Z,3.10
2019-03-28T15:48:18.435Z,2.83
2019-03-28T15:50:47.946Z,2.70
2019-03-28T15:53:17.444Z,2.33
2019-03-28T15:55:46.900Z,2.80
2019-03-28T15:58:23.032Z,2.63
2019-03-28T16:00:47.862Z,2.63
2019-03-28T16:03:17.372Z,2.50
2019-03-28T16:05:57.480Z,2.40
2019-03-28T16:08:18.123Z,2.30
2019-03-28T16:10:47.630Z,2.63
2019-03-28T16:13:17.135Z,2.30
2019-03-28T16:15:46.510Z,2.20
2019-03-28T16:18:16.045Z,2.47
2019-03-28T16:20:45.593Z,2.53
2019-03-28T16:23:15.042Z,2.33
2019-03-28T16:25:44.548Z,2.03
2019-03-28T16:28:14.108Z,2.50
2019-03-28T16:30:43.708Z,2.30
2019-03-28T16:33:13.301Z,2.77
2019-03-28T16:35:42.882Z,2.40
2019-03-28T16:38:12.385Z,2.50
2019-03-28T16:40:45.001Z,2.07
2019-03-28T16:43:14.473Z,2.03
2019-03-28T16:45:44.474Z,2.80
2019-03-28T16:48:15.154Z,2.40
2019-03-28T16:50:44.717Z,2.90
2019-03-28T16:53:14.186Z,2.90
2019-03-28T16:55:43.614Z,2.73
2019-03-28T16:58:13.092Z,2.30
2019-03-28T17:00:42.527Z,2.47
2019-03-28T17:03:11.989Z,2.27
2019-03-28T17:05:41.970Z,2.70
2019-03-28T17:08:12.192Z,2.63
2019-03-28T17:10:52.696Z,2.55
2019-03-28T17:13:22.282Z,2.63
2019-03-28T17:15:52.003Z,3.13
2019-03-28T17:18:21.514Z,3.20
2019-03-28T17:20:51.057Z,2.20
2019-03-28T17:23:21.003Z,2.70
2019-03-28T17:25:50.461Z,2.50
2019-03-28T17:28:19.960Z,2.90
2019-03-28T17:30:49.487Z,3.27
2019-03-28T17:33:18.946Z,3.20
2019-03-28T17:35:49.012Z,3.70
2019-03-28T17:38:18.713Z,3.37
2019-03-28T17:40:48.323Z,4.00
2019-03-28T17:43:17.902Z,4.13
2019-03-28T17:45:47.603Z,4.00
2019-03-28T17:48:17.159Z,4.40
2019-03-28T17:50:46.799Z,4.07
2019-03-28T17:53:16.340Z,3.70
2019-03-28T17:55:45.956Z,3.77
2019-03-28T17:58:15.451Z,3.83
2019-03-28T18:00:46.956Z,4.00
2019-03-28T18:03:30.227Z,3.40
2019-03-28T18:05:57.384Z,4.30
2019-03-28T18:08:19.777Z,4.23
2019-03-28T18:10:49.438Z,4.53
2019-03-28T18:13:18.950Z,4.10
2019-03-28T18:15:48.474Z,3.70
2019-03-28T18:18:18.084Z,3.80
2019-03-28T18:20:47.677Z,3.77
2019-03-28T18:23:17.530Z,3.33
2019-03-28T18:25:46.860Z,3.80
2019-03-28T18:28:16.332Z,3.80
2019-03-28T18:30:46.130Z,3.67
2019-03-28T18:33:15.666Z,3.30
2019-03-28T18:35:45.312Z,3.33
2019-03-28T18:38:14.858Z,3.67
2019-03-28T18:40:44.343Z,3.47
2019-03-28T18:43:13.793Z,3.90
2019-03-28T18:45:43.224Z,4.47
2019-03-28T18:48:26.928Z,4.27
2019-03-28T18:50:43.934Z,4.37
2019-03-28T18:53:13.339Z,3.80
2019-03-28T18:55:42.755Z,3.70
2019-03-28T18:58:24.727Z,4.63
2019-03-28T19:00:58.725Z,4.30
2019-03-28T19:03:30.473Z,4.03
2019-03-28T19:06:00.677Z,4.50
2019-03-28T19:08:30.971Z,4.03
2019-03-28T19:11:00.615Z,4.07
2019-03-28T19:13:30.107Z,4.50
2019-03-28T19:16:02.902Z,3.83
2019-03-28T19:18:40.429Z,3.97
2019-03-28T19:21:10.460Z,3.53
2019-03-28T19:23:40.400Z,3.90
2019-03-28T19:26:13.890Z,4.03
2019-03-28T19:28:43.291Z,3.63
2019-03-28T19:31:13.635Z,3.23
2019-03-28T19:33:43.169Z,3.90
2019-03-28T19:36:14.055Z,3.93
2019-03-28T19:38:51.987Z,4.60
2019-03-28T19:41:36.570Z,4.10
2019-03-28T19:44:08.104Z,4.00
2019-03-28T19:46:51.292Z,4.40
2019-03-28T19:49:21.307Z,4.03
2019-03-28T19:51:54.929Z,4.40
2019-03-28T19:54:43.815Z,4.13
2019-03-28T19:57:13.906Z,4.73
2019-03-28T19:59:43.289Z,4.53
2019-03-28T20:02:14.247Z,4.67
2019-03-28T20:04:45.028Z,5.43
2019-03-28T20:07:21.348Z,5.13
2019-03-28T20:09:45.830Z,5.70
2019-03-28T20:12:15.419Z,5.97
2019-03-28T20:14:45.085Z,5.30
2019-03-28T20:17:15.083Z,6.90
2019-03-28T20:19:44.516Z,7.43
2019-03-28T20:22:13.967Z,7.37
2019-03-28T20:24:58.068Z,7.13
2019-03-28T20:27:19.776Z,6.93
2019-03-28T20:29:49.221Z,7.50
2019-03-28T20:32:18.655Z,7.93
2019-03-28T20:34:49.243Z,7.23
2019-03-28T20:37:19.368Z,7.00
2019-03-28T20:40:19.284Z,8.40
2019-03-28T20:42:55.176Z,7.57
2019-03-28T20:45:36.855Z,8.47
2019-03-28T20:48:14.409Z,8.30
2019-03-28T20:50:46.679Z,8.13
2019-03-28T20:53:19.723Z,8.30
2019-03-28T20:55:51.776Z,8.67
2019-03-28T20:58:24.036Z,9.00
2019-03-28T21:00:54.117Z,8.93
2019-03-28T21:03:25.489Z,8.20
2019-03-28T21:06:15.025Z,7.70
2019-03-28T21:08:37.305Z,8.00
2019-03-28T21:11:07.116Z,7.67
2019-03-28T21:13:36.682Z,7.57
2019-03-28T21:16:06.367Z,6.83
2019-03-28T21:18:36.494Z,8.03
2019-03-28T21:21:06.025Z,7.20
2019-03-28T21:23:35.533Z,6.93
2019-03-28T21:26:05.047Z,7.23
2019-03-28T21:28:46.391Z,7.53
2019-03-28T21:31:05.771Z,6.37
2019-03-28T21:33:35.224Z,6.77
2019-03-28T21:36:05.089Z,6.47
2019-03-28T21:38:34.535Z,6.77
2019-03-28T21:41:04.271Z,7.23
2019-03-28T21:43:46.043Z,6.57
2019-03-28T21:46:15.556Z,5.83
2019-03-28T21:48:45.010Z,6.00
2019-03-28T21:51:14.704Z,6.10
2019-03-28T21:53:45.528Z,6.37
2019-03-28T21:56:15.261Z,6.40
2019-03-28T21:58:44.812Z,6.37
2019-03-28T22:01:14.373Z,5.17
2019-03-28T22:03:53.273Z,6.27
2019-03-28T22:06:25.409Z,6.57
2019-03-28T22:09:04.460Z,5.73
2019-03-28T22:11:34.768Z,5.73
2019-03-28T22:14:07.927Z,6.30
2019-03-28T22:16:38.987Z,6.43
2019-03-28T22:19:12.776Z,5.60
2019-03-28T22:21:47.979Z,5.77
2019-03-28T22:24:22.953Z,5.77
2019-03-28T22:27:00.666Z,5.73
2019-03-28T22:29:55.800Z,5.93
2019-03-28T22:32:27.724Z,6.03
2019-03-28T22:35:07.327Z,7.70
2019-03-28T22:37:39.611Z,5.83
2019-03-28T22:40:16.561Z,5.50
2019-03-28T22:42:49.249Z,6.23
2019-03-28T22:45:21.416Z,4.93
2019-03-28T22:48:10.148Z,5.37
2019-03-28T22:50:48.273Z,6.37
2019-03-28T22:53:28.660Z,5.53
2019-03-28T22:56:02.914Z,5.57
2019-03-28T22:58:36.585Z,6.30
2019-03-28T23:01:11.479Z,6.17
2019-03-28T23:03:58.083Z,5.83
2019-03-28T23:06:41.781Z,6.50
2019-03-28T23:09:14.003Z,5.77
2019-03-28T23:11:50.925Z,4.97
2019-03-28T23:14:22.562Z,6.17
2019-03-28T23:16:59.699Z,6.43
2019-03-28T23:19:41.117Z,6.17
2019-03-28T23:22:13.053Z,5.80
2019-03-28T23:24:47.585Z,6.23
2019-03-28T23:27:27.548Z,7.00
2019-03-28T23:30:10.074Z,6.53
2019-03-28T23:32:57.641Z,6.33
2019-03-28T23:35:37.307Z,6.67
2019-03-28T23:38:11.853Z,6.47
2019-03-28T23:40:50.305Z,7.13
2019-03-28T23:43:21.420Z,6.77
2019-03-28T23:45:55.748Z,6.27
2019-03-28T23:48:30.125Z,6.73
2019-03-28T23:51:02.786Z,7.13
2019-03-28T23:53:39.605Z,6.40
2019-03-28T23:56:20.130Z,6.80
2019-03-28T23:59:04.291Z,6.97
